sensor_id;sensor_type;location;lat;lon;timestamp;temperature;humidity
30063;DHT22;16889;67.864;24.990;2024-01-15T00:01:52;-20.50;99.90
30063;DHT22;16889;67.864;24.990;2024-01-15T00:06:38;-20.70;99.90
30063;DHT22;16889;67.864;24.990;2024-01-15T00:11:24;-21.00;99.90
30063;DHT22;16889;67.864;24.990;2024-01-15T00:16:09;-21.10;99.90
30063;DHT22;16889;67.864;24.990;2024-01-15T00:20:56;-21.10;99.90
30063;DHT22;16889;67.864;24.990;2024-01-15T00:25:41;-21.00;99.90
30063;DHT22;16889;67.864;24.990;2024-01-15T00:30:27;-21.10;99.90
30063;DHT22;16889;67.864;24.990;2024-01-15T00:35:13;-20.90;99.90
30063;DHT22;16889;67.864;24.990;2024-01-15T00:39:59;-21.10;99.90
30063;DHT22;16889;67.864;24.990;2024-01-15T00:44:45;-21.30;99.90
30063;DHT22;16889;67.864;24.990;2024-01-15T00:49:31;-21.50;99.90
30063;DHT22;16889;67.864;24.990;2024-01-15T00:54:17;-21.40;99.90
30063;DHT22;16889;67.864;24.990;2024-01-15T00:59:02;-21.60;99.90
30063;DHT22;16889;67.864;24.990;2024-01-15T01:03:48;-21.60;99.90
30063;DHT22;16889;67.864;24.990;2024-01-15T01:08:34;-21.40;99.90
30063;DHT22;16889;67.864;24.990;2024-01-15T01:13:20;-21.00;99.90
30063;DHT22;16889;67.864;24.990;2024-01-15T01:18:06;-20.70;99.90
30063;DHT22;16889;67.864;24.990;2024-01-15T01:22:52;-20.50;99.90
30063;DHT22;16889;67.864;24.990;2024-01-15T01:27:37;-20.40;99.90
30063;DHT22;16889;67.864;24.990;2024-01-15T01:32:23;-20.20;99.90
30063;DHT22;16889;67.864;24.990;2024-01-15T01:37:10;-20.10;99.90
30063;DHT22;16889;67.864;24.990;2024-01-15T01:41:58;-20.20;99.90
30063;DHT22;16889;67.864;24.990;2024-01-15T01:46:44;-20.40;99.90
30063;DHT22;16889;67.864;24.990;2024-01-15T01:51:30;-20.60;99.90
30063;DHT22;16889;67.864;24.990;2024-01-15T01:56:17;-20.60;99.90
30063;DHT22;16889;67.864;24.990;2024-01-15T02:01:03;-20.40;99.90
30063;DHT22;16889;67.864;24.990;2024-01-15T02:05:50;-20.20;99.90
30063;DHT22;16889;67.864;24.990;2024-01-15T02:10:36;-20.20;99.90
30063;DHT22;16889;67.864;24.990;2024-01-15T02:15:22;-20.30;99.90
30063;DHT22;16889;67.864;24.990;2024-01-15T02:20:08;-20.40;99.90
30063;DHT22;16889;67.864;24.990;2024-01-15T02:24:54;-20.40;99.90
30063;DHT22;16889;67.864;24.990;2024-01-15T02:29:40;-20.50;99.90
30063;DHT22;16889;67.864;24.990;2024-01-15T02:34:26;-20.60;99.90
30063;DHT22;16889;67.864;24.990;2024-01-15T02:39:12;-20.40;99.90
30063;DHT22;16889;67.864;24.990;2024-01-15T02:43:58;-20.50;99.90
30063;DHT22;16889;67.864;24.990;2024-01-15T02:48:44;-20.30;99.90
30063;DHT22;16889;67.864;24.990;2024-01-15T02:53:30;-20.20;99.90
30063;DHT22;16889;67.864;24.990;2024-01-15T02:58:15;-19.90;99.90
30063;DHT22;16889;67.864;24.990;2024-01-15T03:03:01;-19.70;99.90
30063;DHT22;16889;67.864;24.990;2024-01-15T03:07:47;-19.40;99.90
30063;DHT22;16889;67.864;24.990;2024-01-15T03:12:33;-19.20;99.90
30063;DHT22;16889;67.864;24.990;2024-01-15T03:17:19;-18.90;99.90
30063;DHT22;16889;67.864;24.990;2024-01-15T03:22:05;-18.70;99.90
30063;DHT22;16889;67.864;24.990;2024-01-15T03:26:53;-18.80;99.90
30063;DHT22;16889;67.864;24.990;2024-01-15T03:31:39;-18.90;99.90
30063;DHT22;16889;67.864;24.990;2024-01-15T03:36:25;-18.90;99.90
30063;DHT22;16889;67.864;24.990;2024-01-15T03:41:11;-18.70;99.90
30063;DHT22;16889;67.864;24.990;2024-01-15T03:45:57;-18.70;99.90
30063;DHT22;16889;67.864;24.990;2024-01-15T03:50:43;-18.60;99.90
30063;DHT22;16889;67.864;24.990;2024-01-15T03:55:29;-18.60;99.90
30063;DHT22;16889;67.864;24.990;2024-01-15T04:00:16;-18.50;99.90
30063;DHT22;16889;67.864;24.990;2024-01-15T04:05:03;-18.50;99.90
30063;DHT22;16889;67.864;24.990;2024-01-15T04:09:49;-18.40;99.90
30063;DHT22;16889;67.864;24.990;2024-01-15T04:14:35;-18.10;99.90
30063;DHT22;16889;67.864;24.990;2024-01-15T04:19:21;-17.90;99.90
30063;DHT22;16889;67.864;24.990;2024-01-15T04:24:06;-17.80;99.90
30063;DHT22;16889;67.864;24.990;2024-01-15T04:28:52;-17.80;99.90
30063;DHT22;16889;67.864;24.990;2024-01-15T04:33:38;-17.90;99.90
30063;DHT22;16889;67.864;24.990;2024-01-15T04:38:24;-18.00;99.90
30063;DHT22;16889;67.864;24.990;2024-01-15T04:43:10;-18.20;99.90
30063;DHT22;16889;67.864;24.990;2024-01-15T04:47:56;-18.30;99.90
30063;DHT22;16889;67.864;24.990;2024-01-15T04:52:43;-18.50;99.90
30063;DHT22;16889;67.864;24.990;2024-01-15T04:57:29;-18.70;99.90
30063;DHT22;16889;67.864;24.990;2024-01-15T05:02:15;-18.90;99.90
30063;DHT22;16889;67.864;24.990;2024-01-15T05:07:01;-19.00;99.90
30063;DHT22;16889;67.864;24.990;2024-01-15T05:11:47;-19.30;99.90
30063;DHT22;16889;67.864;24.990;2024-01-15T05:16:32;-19.70;99.90
30063;DHT22;16889;67.864;24.990;2024-01-15T05:21:19;-19.80;99.90
30063;DHT22;16889;67.864;24.990;2024-01-15T05:26:05;-19.90;99.90
30063;DHT22;16889;67.864;24.990;2024-01-15T05:30:53;-19.80;99.90
30063;DHT22;16889;67.864;24.990;2024-01-15T05:35:41;-19.80;99.90
30063;DHT22;16889;67.864;24.990;2024-01-15T05:40:27;-20.00;99.90
30063;DHT22;16889;67.864;24.990;2024-01-15T05:45:12;-20.20;99.90
30063;DHT22;16889;67.864;24.990;2024-01-15T05:50:00;-20.30;99.90
30063;DHT22;16889;67.864;24.990;2024-01-15T05:54:46;-20.30;99.90
30063;DHT22;16889;67.864;24.990;2024-01-15T05:59:32;-20.20;99.90
30063;DHT22;16889;67.864;24.990;2024-01-15T06:04:19;-20.20;99.90
30063;DHT22;16889;67.864;24.990;2024-01-15T06:09:05;-20.10;99.90
30063;DHT22;16889;67.864;24.990;2024-01-15T06:13:51;-20.00;99.90
30063;DHT22;16889;67.864;24.990;2024-01-15T06:18:37;-19.90;99.90
30063;DHT22;16889;67.864;24.990;2024-01-15T06:23:23;-19.90;99.90
30063;DHT22;16889;67.864;24.990;2024-01-15T06:28:09;-19.80;99.90
30063;DHT22;16889;67.864;24.990;2024-01-15T06:32:56;-19.80;99.90
30063;DHT22;16889;67.864;24.990;2024-01-15T06:37:42;-19.80;99.90
30063;DHT22;16889;67.864;24.990;2024-01-15T06:42:27;-19.80;99.90
30063;DHT22;16889;67.864;24.990;2024-01-15T06:47:13;-19.90;99.90
30063;DHT22;16889;67.864;24.990;2024-01-15T06:52:00;-20.10;99.90
30063;DHT22;16889;67.864;24.990;2024-01-15T06:56:46;-20.10;99.90
30063;DHT22;16889;67.864;24.990;2024-01-15T07:01:32;-20.20;99.90
30063;DHT22;16889;67.864;24.990;2024-01-15T07:06:18;-20.50;99.90
30063;DHT22;16889;67.864;24.990;2024-01-15T07:11:04;-20.90;99.90
30063;DHT22;16889;67.864;24.990;2024-01-15T07:15:50;-21.40;99.90
30063;DHT22;16889;67.864;24.990;2024-01-15T07:20:36;-21.40;99.90
30063;DHT22;16889;67.864;24.990;2024-01-15T07:25:22;-21.30;99.90
30063;DHT22;16889;67.864;24.990;2024-01-15T07:30:08;-21.40;99.90
30063;DHT22;16889;67.864;24.990;2024-01-15T07:34:54;-21.50;99.90
30063;DHT22;16889;67.864;24.990;2024-01-15T07:39:40;-21.60;99.90
30063;DHT22;16889;67.864;24.990;2024-01-15T07:44:26;-22.00;99.90
30063;DHT22;16889;67.864;24.990;2024-01-15T07:49:12;-22.20;99.90
30063;DHT22;16889;67.864;24.990;2024-01-15T07:53:58;-22.50;99.90
30063;DHT22;16889;67.864;24.990;2024-01-15T07:58:44;-22.60;99.90
30063;DHT22;16889;67.864;24.990;2024-01-15T08:03:30;-22.50;99.90
30063;DHT22;16889;67.864;24.990;2024-01-15T08:08:16;-22.60;99.90
30063;DHT22;16889;67.864;24.990;2024-01-15T08:13:02;-22.90;99.90
30063;DHT22;16889;67.864;24.990;2024-01-15T08:17:48;-22.90;99.90
30063;DHT22;16889;67.864;24.990;2024-01-15T08:22:34;-23.10;99.90
30063;DHT22;16889;67.864;24.990;2024-01-15T08:27:20;-23.40;99.90
30063;DHT22;16889;67.864;24.990;2024-01-15T08:32:05;-23.50;99.90
30063;DHT22;16889;67.864;24.990;2024-01-15T08:36:51;-23.70;99.90
30063;DHT22;16889;67.864;24.990;2024-01-15T08:41:37;-23.80;99.90
30063;DHT22;16889;67.864;24.990;2024-01-15T08:46:23;-23.90;99.90
30063;DHT22;16889;67.864;24.990;2024-01-15T08:51:10;-23.80;99.90
30063;DHT22;16889;67.864;24.990;2024-01-15T08:55:55;-23.70;99.90
30063;DHT22;16889;67.864;24.990;2024-01-15T09:00:41;-23.70;99.90
30063;DHT22;16889;67.864;24.990;2024-01-15T09:05:27;-23.90;99.90
30063;DHT22;16889;67.864;24.990;2024-01-15T09:10:14;-24.10;99.90
30063;DHT22;16889;67.864;24.990;2024-01-15T09:15:00;-24.00;99.90
30063;DHT22;16889;67.864;24.990;2024-01-15T09:19:46;-23.70;99.90
30063;DHT22;16889;67.864;24.990;2024-01-15T09:24:32;-23.50;99.90
30063;DHT22;16889;67.864;24.990;2024-01-15T09:29:17;-23.20;99.90
30063;DHT22;16889;67.864;24.990;2024-01-15T09:34:03;-23.00;99.90
30063;DHT22;16889;67.864;24.990;2024-01-15T09:38:49;-22.80;99.90
30063;DHT22;16889;67.864;24.990;2024-01-15T09:43:37;-22.80;99.90
30063;DHT22;16889;67.864;24.990;2024-01-15T09:48:23;-22.60;99.90
30063;DHT22;16889;67.864;24.990;2024-01-15T09:53:10;-22.50;99.90
30063;DHT22;16889;67.864;24.990;2024-01-15T09:57:56;-22.60;99.90
30063;DHT22;16889;67.864;24.990;2024-01-15T10:02:43;-22.80;99.90
30063;DHT22;16889;67.864;24.990;2024-01-15T10:07:29;-22.90;99.90
30063;DHT22;16889;67.864;24.990;2024-01-15T10:12:16;-22.80;99.90
30063;DHT22;16889;67.864;24.990;2024-01-15T10:17:12;-22.90;99.90
30063;DHT22;16889;67.864;24.990;2024-01-15T10:22:01;-22.70;99.90
30063;DHT22;16889;67.864;24.990;2024-01-15T10:26:47;-22.60;99.90
30063;DHT22;16889;67.864;24.990;2024-01-15T10:31:33;-22.90;99.90
30063;DHT22;16889;67.864;24.990;2024-01-15T10:36:19;-22.90;99.90
30063;DHT22;16889;67.864;24.990;2024-01-15T10:41:04;-22.80;99.90
30063;DHT22;16889;67.864;24.990;2024-01-15T10:45:51;-22.60;99.90
30063;DHT22;16889;67.864;24.990;2024-01-15T10:50:37;-22.60;99.90
30063;DHT22;16889;67.864;24.990;2024-01-15T10:55:24;-22.70;99.90
30063;DHT22;16889;67.864;24.990;2024-01-15T11:00:11;-22.70;99.90
30063;DHT22;16889;67.864;24.990;2024-01-15T11:05:00;-22.70;99.90
30063;DHT22;16889;67.864;24.990;2024-01-15T11:09:46;-22.70;99.90
30063;DHT22;16889;67.864;24.990;2024-01-15T11:19:24;-23.00;99.90
30063;DHT22;16889;67.864;24.990;2024-01-15T11:24:10;-23.20;99.90
30063;DHT22;16889;67.864;24.990;2024-01-15T11:29:29;-23.30;99.90
30063;DHT22;16889;67.864;24.990;2024-01-15T11:34:15;-23.40;99.90
30063;DHT22;16889;67.864;24.990;2024-01-15T11:44:13;-23.80;99.90
30063;DHT22;16889;67.864;24.990;2024-01-15T11:49:03;-24.00;99.90
30063;DHT22;16889;67.864;24.990;2024-01-15T11:53:54;-23.90;99.90
30063;DHT22;16889;67.864;24.990;2024-01-15T11:58:43;-24.20;99.90
30063;DHT22;16889;67.864;24.990;2024-01-15T12:03:32;-24.20;99.90
30063;DHT22;16889;67.864;24.990;2024-01-15T12:08:25;-24.50;99.90
30063;DHT22;16889;67.864;24.990;2024-01-15T12:13:16;-24.50;99.90
30063;DHT22;16889;67.864;24.990;2024-01-15T12:18:03;-24.40;99.90
30063;DHT22;16889;67.864;24.990;2024-01-15T12:22:49;-24.30;99.90
30063;DHT22;16889;67.864;24.990;2024-01-15T12:27:35;-24.30;99.90
30063;DHT22;16889;67.864;24.990;2024-01-15T12:32:22;-24.40;99.90
30063;DHT22;16889;67.864;24.990;2024-01-15T12:37:09;-24.60;99.90
30063;DHT22;16889;67.864;24.990;2024-01-15T12:41:56;-24.80;99.90
30063;DHT22;16889;67.864;24.990;2024-01-15T12:46:43;-25.20;99.90
30063;DHT22;16889;67.864;24.990;2024-01-15T12:51:29;-25.40;99.90
30063;DHT22;16889;67.864;24.990;2024-01-15T12:56:15;-25.40;99.90
30063;DHT22;16889;67.864;24.990;2024-01-15T13:01:00;-25.20;99.90
30063;DHT22;16889;67.864;24.990;2024-01-15T13:05:47;-25.00;99.90
30063;DHT22;16889;67.864;24.990;2024-01-15T13:10:33;-25.10;99.90
30063;DHT22;16889;67.864;24.990;2024-01-15T13:15:18;-25.00;99.90
30063;DHT22;16889;67.864;24.990;2024-01-15T13:20:05;-25.00;99.90
30063;DHT22;16889;67.864;24.990;2024-01-15T13:24:52;-25.00;99.90
30063;DHT22;16889;67.864;24.990;2024-01-15T13:29:38;-25.30;99.90
30063;DHT22;16889;67.864;24.990;2024-01-15T13:34:25;-25.40;99.90
30063;DHT22;16889;67.864;24.990;2024-01-15T13:39:11;-25.50;99.90
30063;DHT22;16889;67.864;24.990;2024-01-15T13:43:57;-25.80;99.90
30063;DHT22;16889;67.864;24.990;2024-01-15T13:48:44;-26.10;99.90
30063;DHT22;16889;67.864;24.990;2024-01-15T13:53:30;-26.20;99.90
30063;DHT22;16889;67.864;24.990;2024-01-15T13:58:16;-26.30;99.90
30063;DHT22;16889;67.864;24.990;2024-01-15T14:03:04;-26.50;99.90
30063;DHT22;16889;67.864;24.990;2024-01-15T14:07:51;-26.80;99.90
30063;DHT22;16889;67.864;24.990;2024-01-15T14:12:37;-27.10;99.90
30063;DHT22;16889;67.864;24.990;2024-01-15T14:17:23;-27.10;99.90
30063;DHT22;16889;67.864;24.990;2024-01-15T14:22:09;-27.30;99.90
30063;DHT22;16889;67.864;24.990;2024-01-15T14:26:55;-27.10;99.90
30063;DHT22;16889;67.864;24.990;2024-01-15T14:31:40;-26.80;99.90
30063;DHT22;16889;67.864;24.990;2024-01-15T14:36:26;-26.60;99.90
30063;DHT22;16889;67.864;24.990;2024-01-15T14:41:12;-26.50;99.90
30063;DHT22;16889;67.864;24.990;2024-01-15T14:45:58;-26.30;99.90
30063;DHT22;16889;67.864;24.990;2024-01-15T14:50:45;-26.50;99.90
30063;DHT22;16889;67.864;24.990;2024-01-15T14:55:31;-26.50;99.90
30063;DHT22;16889;67.864;24.990;2024-01-15T15:00:18;-26.30;99.90
30063;DHT22;16889;67.864;24.990;2024-01-15T15:05:04;-26.30;99.90
30063;DHT22;16889;67.864;24.990;2024-01-15T15:09:50;-26.30;99.90
30063;DHT22;16889;67.864;24.990;2024-01-15T15:14:39;-26.90;99.90
30063;DHT22;16889;67.864;24.990;2024-01-15T15:19:25;-26.50;99.90
30063;DHT22;16889;67.864;24.990;2024-01-15T15:24:11;-26.70;99.90
30063;DHT22;16889;67.864;24.990;2024-01-15T15:28:57;-26.60;99.90
30063;DHT22;16889;67.864;24.990;2024-01-15T15:33:43;-26.60;99.90
30063;DHT22;16889;67.864;24.990;2024-01-15T15:38:31;-26.40;99.90
30063;DHT22;16889;67.864;24.990;2024-01-15T15:43:17;-26.20;99.90
30063;DHT22;16889;67.864;24.990;2024-01-15T15:48:04;-26.10;99.90
30063;DHT22;16889;67.864;24.990;2024-01-15T15:52:50;-26.10;99.90
30063;DHT22;16889;67.864;24.990;2024-01-15T15:57:36;-26.10;99.90
30063;DHT22;16889;67.864;24.990;2024-01-15T16:02:23;-26.20;99.90
30063;DHT22;16889;67.864;24.990;2024-01-15T16:07:09;-26.00;99.90
30063;DHT22;16889;67.864;24.990;2024-01-15T16:11:57;-25.70;99.90
30063;DHT22;16889;67.864;24.990;2024-01-15T16:16:43;-25.50;99.90
30063;DHT22;16889;67.864;24.990;2024-01-15T16:21:31;-25.40;99.90
30063;DHT22;16889;67.864;24.990;2024-01-15T16:26:17;-25.40;99.90
30063;DHT22;16889;67.864;24.990;2024-01-15T16:31:03;-25.50;99.90
30063;DHT22;16889;67.864;24.990;2024-01-15T16:35:49;-25.60;99.90
30063;DHT22;16889;67.864;24.990;2024-01-15T16:40:35;-25.40;99.90
30063;DHT22;16889;67.864;24.990;2024-01-15T16:45:21;-25.00;99.90
30063;DHT22;16889;67.864;24.990;2024-01-15T16:50:07;-24.80;99.90
30063;DHT22;16889;67.864;24.990;2024-01-15T16:54:53;-24.60;99.90
30063;DHT22;16889;67.864;24.990;2024-01-15T16:59:39;-24.20;99.90
30063;DHT22;16889;67.864;24.990;2024-01-15T17:04:25;-24.00;99.90
30063;DHT22;16889;67.864;24.990;2024-01-15T17:09:11;-23.80;99.90
30063;DHT22;16889;67.864;24.990;2024-01-15T17:13:58;-23.70;99.90
30063;DHT22;16889;67.864;24.990;2024-01-15T17:18:45;-23.60;99.90
30063;DHT22;16889;67.864;24.990;2024-01-15T17:23:31;-23.50;99.90
30063;DHT22;16889;67.864;24.990;2024-01-15T17:28:17;-23.40;99.90
30063;DHT22;16889;67.864;24.990;2024-01-15T17:33:03;-23.30;99.90
30063;DHT22;16889;67.864;24.990;2024-01-15T17:37:50;-23.40;99.90
30063;DHT22;16889;67.864;24.990;2024-01-15T17:42:35;-23.70;99.90
30063;DHT22;16889;67.864;24.990;2024-01-15T17:47:21;-23.70;99.90
30063;DHT22;16889;67.864;24.990;2024-01-15T17:52:08;-23.80;99.90
30063;DHT22;16889;67.864;24.990;2024-01-15T17:56:54;-24.00;99.90
30063;DHT22;16889;67.864;24.990;2024-01-15T18:01:40;-24.00;99.90
30063;DHT22;16889;67.864;24.990;2024-01-15T18:06:28;-24.10;99.90
30063;DHT22;16889;67.864;24.990;2024-01-15T18:11:16;-24.30;99.90
30063;DHT22;16889;67.864;24.990;2024-01-15T18:16:03;-24.30;99.90
30063;DHT22;16889;67.864;24.990;2024-01-15T18:20:49;-24.50;99.90
30063;DHT22;16889;67.864;24.990;2024-01-15T18:25:35;-24.50;99.90
30063;DHT22;16889;67.864;24.990;2024-01-15T18:30:20;-24.50;99.90
30063;DHT22;16889;67.864;24.990;2024-01-15T18:35:07;-24.50;99.90
30063;DHT22;16889;67.864;24.990;2024-01-15T18:39:53;-24.60;99.90
30063;DHT22;16889;67.864;24.990;2024-01-15T18:44:39;-24.80;99.90
30063;DHT22;16889;67.864;24.990;2024-01-15T18:49:25;-24.70;99.90
30063;DHT22;16889;67.864;24.990;2024-01-15T18:54:12;-24.70;99.90
30063;DHT22;16889;67.864;24.990;2024-01-15T18:58:57;-24.70;99.90
30063;DHT22;16889;67.864;24.990;2024-01-15T19:03:43;-24.70;99.90
30063;DHT22;16889;67.864;24.990;2024-01-15T19:08:29;-24.70;99.90
30063;DHT22;16889;67.864;24.990;2024-01-15T19:13:15;-24.70;99.90
30063;DHT22;16889;67.864;24.990;2024-01-15T19:18:01;-25.00;99.90
30063;DHT22;16889;67.864;24.990;2024-01-15T19:22:47;-25.00;99.90
30063;DHT22;16889;67.864;24.990;2024-01-15T19:27:33;-25.00;99.90
30063;DHT22;16889;67.864;24.990;2024-01-15T19:32:20;-25.20;99.90
30063;DHT22;16889;67.864;24.990;2024-01-15T19:37:06;-25.20;99.90
30063;DHT22;16889;67.864;24.990;2024-01-15T19:41:52;-25.10;99.90
30063;DHT22;16889;67.864;24.990;2024-01-15T19:46:40;-24.90;99.90
30063;DHT22;16889;67.864;24.990;2024-01-15T19:51:26;-24.90;99.90
30063;DHT22;16889;67.864;24.990;2024-01-15T19:56:12;-25.00;99.90
30063;DHT22;16889;67.864;24.990;2024-01-15T20:01:02;-25.00;99.90
30063;DHT22;16889;67.864;24.990;2024-01-15T20:05:48;-25.00;99.90
30063;DHT22;16889;67.864;24.990;2024-01-15T20:10:34;-25.00;99.90
30063;DHT22;16889;67.864;24.990;2024-01-15T20:15:20;-25.00;99.90
30063;DHT22;16889;67.864;24.990;2024-01-15T20:20:07;-25.10;99.90
30063;DHT22;16889;67.864;24.990;2024-01-15T20:24:56;-25.00;99.90
30063;DHT22;16889;67.864;24.990;2024-01-15T20:29:42;-25.00;99.90
30063;DHT22;16889;67.864;24.990;2024-01-15T20:34:27;-25.00;99.90
30063;DHT22;16889;67.864;24.990;2024-01-15T20:39:14;-25.10;99.90
30063;DHT22;16889;67.864;24.990;2024-01-15T20:44:00;-25.10;99.90
30063;DHT22;16889;67.864;24.990;2024-01-15T20:48:46;-25.20;99.90
30063;DHT22;16889;67.864;24.990;2024-01-15T20:53:32;-25.20;99.90
30063;DHT22;16889;67.864;24.990;2024-01-15T20:58:25;-25.10;99.90
30063;DHT22;16889;67.864;24.990;2024-01-15T21:03:11;-25.10;99.90
30063;DHT22;16889;67.864;24.990;2024-01-15T21:07:59;-25.00;99.90
30063;DHT22;16889;67.864;24.990;2024-01-15T21:12:45;-25.00;99.90
30063;DHT22;16889;67.864;24.990;2024-01-15T21:17:31;-25.00;99.90
30063;DHT22;16889;67.864;24.990;2024-01-15T21:22:18;-25.00;99.90
30063;DHT22;16889;67.864;24.990;2024-01-15T21:27:04;-25.10;99.90
30063;DHT22;16889;67.864;24.990;2024-01-15T21:31:50;-25.10;99.90
30063;DHT22;16889;67.864;24.990;2024-01-15T21:36:37;-25.00;99.90
30063;DHT22;16889;67.864;24.990;2024-01-15T21:41:23;-25.10;99.90
30063;DHT22;16889;67.864;24.990;2024-01-15T21:46:09;-25.10;99.90
30063;DHT22;16889;67.864;24.990;2024-01-15T21:50:54;-25.10;99.90
30063;DHT22;16889;67.864;24.990;2024-01-15T21:55:40;-25.20;99.90
30063;DHT22;16889;67.864;24.990;2024-01-15T22:00:26;-25.30;99.90
30063;DHT22;16889;67.864;24.990;2024-01-15T22:05:12;-25.30;99.90
30063;DHT22;16889;67.864;24.990;2024-01-15T22:09:58;-25.40;99.90
30063;DHT22;16889;67.864;24.990;2024-01-15T22:14:44;-25.30;99.90
30063;DHT22;16889;67.864;24.990;2024-01-15T22:19:30;-25.20;99.90
30063;DHT22;16889;67.864;24.990;2024-01-15T22:24:19;-25.40;99.90
30063;DHT22;16889;67.864;24.990;2024-01-15T22:29:06;-25.60;99.90
30063;DHT22;16889;67.864;24.990;2024-01-15T22:33:51;-25.70;99.90
30063;DHT22;16889;67.864;24.990;2024-01-15T22:38:37;-25.70;99.90
30063;DHT22;16889;67.864;24.990;2024-01-15T22:43:23;-25.70;99.90
30063;DHT22;16889;67.864;24.990;2024-01-15T22:48:09;-25.90;99.90
30063;DHT22;16889;67.864;24.990;2024-01-15T22:52:55;-25.90;99.90
30063;DHT22;16889;67.864;24.990;2024-01-15T22:57:41;-26.00;99.90
30063;DHT22;16889;67.864;24.990;2024-01-15T23:02:28;-26.00;99.90
30063;DHT22;16889;67.864;24.990;2024-01-15T23:07:13;-26.00;99.90
30063;DHT22;16889;67.864;24.990;2024-01-15T23:12:00;-26.20;99.90
30063;DHT22;16889;67.864;24.990;2024-01-15T23:16:46;-26.20;99.90
30063;DHT22;16889;67.864;24.990;2024-01-15T23:21:32;-26.30;99.90
30063;DHT22;16889;67.864;24.990;2024-01-15T23:26:18;-26.40;99.90
30063;DHT22;16889;67.864;24.990;2024-01-15T23:31:04;-26.50;99.90
30063;DHT22;16889;67.864;24.990;2024-01-15T23:35:50;-26.30;99.90
30063;DHT22;16889;67.864;24.990;2024-01-15T23:40:36;-26.20;99.90
30063;DHT22;16889;67.864;24.990;2024-01-15T23:45:22;-26.20;99.90
30063;DHT22;16889;67.864;24.990;2024-01-15T23:50:08;-26.10;99.90
30063;DHT22;16889;67.864;24.990;2024-01-15T23:54:54;-26.10;99.90
30063;DHT22;16889;67.864;24.990;2024-01-15T23:59:40;-26.20;99.90
